sensor_id;sensor_type;location;lat;lon;timestamp;pressure;altitude;pressure_sealevel;temperature
76901;BMP280;65859;43.020;25.096;2023-07-30T00:00:22;99040.09;;;18.96
76901;BMP280;65859;43.020;25.096;2023-07-30T00:02:48;99040.13;;;18.85
76901;BMP280;65859;43.020;25.096;2023-07-30T00:05:15;99049.31;;;18.95
76901;BMP280;65859;43.020;25.096;2023-07-30T00:07:41;99040.09;;;18.96
76901;BMP280;65859;43.020;25.096;2023-07-30T00:10:07;99042.81;;;18.88
76901;BMP280;65859;43.020;25.096;2023-07-30T00:12:34;99038.94;;;19.11
76901;BMP280;65859;43.020;25.096;2023-07-30T00:15:00;99040.28;;;19.69
76901;BMP280;65859;43.020;25.096;2023-07-30T00:17:26;99041.22;;;19.19
76901;BMP280;65859;43.020;25.096;2023-07-30T00:19:52;99044.31;;;19.18
76901;BMP280;65859;43.020;25.096;2023-07-30T00:22:19;99041.97;;;19.34
76901;BMP280;65859;43.020;25.096;2023-07-30T00:24:45;99042.72;;;19.31
76901;BMP280;65859;43.020;25.096;2023-07-30T00:27:11;99050.81;;;19.13
76901;BMP280;65859;43.020;25.096;2023-07-30T00:29:37;99040.88;;;19.00
76901;BMP280;65859;43.020;25.096;2023-07-30T00:32:05;99045.78;;;19.44
76901;BMP280;65859;43.020;25.096;2023-07-30T00:34:32;99046.25;;;18.93
76901;BMP280;65859;43.020;25.096;2023-07-30T00:36:58;99043.56;;;19.00
76901;BMP280;65859;43.020;25.096;2023-07-30T00:39:24;99040.47;;;19.01
76901;BMP280;65859;43.020;25.096;2023-07-30T00:41:50;99038.97;;;18.75
76901;BMP280;65859;43.020;25.096;2023-07-30T00:44:17;99042.00;;;18.92
76901;BMP280;65859;43.020;25.096;2023-07-30T00:46:43;99040.44;;;19.23
76901;BMP280;65859;43.020;25.096;2023-07-30T00:49:09;99042.78;;;19.17
76901;BMP280;65859;43.020;25.096;2023-07-30T00:51:36;99038.91;;;19.29
76901;BMP280;65859;43.020;25.096;2023-07-30T00:54:03;99039.72;;;19.01
76901;BMP280;65859;43.020;25.096;2023-07-30T00:56:30;99033.94;;;18.35
76901;BMP280;65859;43.020;25.096;2023-07-30T00:58:57;99034.72;;;18.32
76901;BMP280;65859;43.020;25.096;2023-07-30T01:01:23;99025.13;;;18.41
76901;BMP280;65859;43.020;25.096;2023-07-30T01:03:50;99023.16;;;18.13
76901;BMP280;65859;43.020;25.096;2023-07-30T01:06:17;99033.09;;;17.95
76901;BMP280;65859;43.020;25.096;2023-07-30T01:08:43;99026.91;;;17.87
76901;BMP280;65859;43.020;25.096;2023-07-30T01:11:10;99031.13;;;17.92
76901;BMP280;65859;43.020;25.096;2023-07-30T01:13:38;99034.25;;;17.94
76901;BMP280;65859;43.020;25.096;2023-07-30T01:16:05;99030.75;;;17.83
76901;BMP280;65859;43.020;25.096;2023-07-30T01:18:32;99027.84;;;18.55
76901;BMP280;65859;43.020;25.096;2023-07-30T01:20:59;99028.16;;;18.25
76901;BMP280;65859;43.020;25.096;2023-07-30T01:23:26;99030.41;;;18.02
76901;BMP280;65859;43.020;25.096;2023-07-30T01:26:08;99027.44;;;18.85
76901;BMP280;65859;43.020;25.096;2023-07-30T01:28:39;99032.44;;;18.37
76901;BMP280;65859;43.020;25.096;2023-07-30T01:31:12;99027.78;;;18.23
76901;BMP280;65859;43.020;25.096;2023-07-30T01:33:41;99035.91;;;18.59
76901;BMP280;65859;43.020;25.096;2023-07-30T01:36:11;99020.44;;;18.06
76901;BMP280;65859;43.020;25.096;2023-07-30T01:38:39;99021.97;;;18.07
76901;BMP280;65859;43.020;25.096;2023-07-30T01:41:06;99014.66;;;17.90
76901;BMP280;65859;43.020;25.096;2023-07-30T01:43:32;99019.25;;;17.93
76901;BMP280;65859;43.020;25.096;2023-07-30T01:45:59;99024.75;;;18.57
76901;BMP280;65859;43.020;25.096;2023-07-30T01:48:26;99022.78;;;18.18
76901;BMP280;65859;43.020;25.096;2023-07-30T01:50:52;99021.91;;;17.79
76901;BMP280;65859;43.020;25.096;2023-07-30T01:53:18;99028.06;;;17.86
76901;BMP280;65859;43.020;25.096;2023-07-30T01:55:45;99031.28;;;18.42
76901;BMP280;65859;43.020;25.096;2023-07-30T01:58:12;99019.69;;;18.13
76901;BMP280;65859;43.020;25.096;2023-07-30T02:00:40;99018.19;;;18.22
76901;BMP280;65859;43.020;25.096;2023-07-30T02:03:06;99020.88;;;18.19
76901;BMP280;65859;43.020;25.096;2023-07-30T02:05:32;99021.81;;;17.57
76901;BMP280;65859;43.020;25.096;2023-07-30T02:08:00;99024.75;;;17.42
76901;BMP280;65859;43.020;25.096;2023-07-30T02:10:26;99019.03;;;17.36
76901;BMP280;65859;43.020;25.096;2023-07-30T02:12:52;99025.09;;;17.26
76901;BMP280;65859;43.020;25.096;2023-07-30T02:15:19;99018.91;;;17.18
76901;BMP280;65859;43.020;25.096;2023-07-30T02:17:45;99021.50;;;17.07
76901;BMP280;65859;43.020;25.096;2023-07-30T02:20:11;99027.22;;;17.68
76901;BMP280;65859;43.020;25.096;2023-07-30T02:22:37;99023.66;;;17.43
76901;BMP280;65859;43.020;25.096;2023-07-30T02:25:04;99031.94;;;18.03
76901;BMP280;65859;43.020;25.096;2023-07-30T02:27:30;99034.63;;;18.03
76901;BMP280;65859;43.020;25.096;2023-07-30T02:29:57;99034.75;;;17.41
76901;BMP280;65859;43.020;25.096;2023-07-30T02:32:23;99036.63;;;17.37
76901;BMP280;65859;43.020;25.096;2023-07-30T02:34:50;99038.53;;;17.33
76901;BMP280;65859;43.020;25.096;2023-07-30T02:37:16;99042.31;;;17.25
76901;BMP280;65859;43.020;25.096;2023-07-30T02:39:44;99030.59;;;16.92
76901;BMP280;65859;43.020;25.096;2023-07-30T02:42:10;99037.94;;;16.99
76901;BMP280;65859;43.020;25.096;2023-07-30T02:44:37;99036.59;;;17.30
76901;BMP280;65859;43.020;25.096;2023-07-30T02:47:03;99037.13;;;17.50
76901;BMP280;65859;43.020;25.096;2023-07-30T02:49:29;99043.00;;;17.15
76901;BMP280;65859;43.020;25.096;2023-07-30T02:51:56;99040.91;;;16.87
76901;BMP280;65859;43.020;25.096;2023-07-30T02:54:22;99049.25;;;17.33
76901;BMP280;65859;43.020;25.096;2023-07-30T02:56:48;99049.44;;;17.03
76901;BMP280;65859;43.020;25.096;2023-07-30T02:59:14;99047.50;;;17.00
76901;BMP280;65859;43.020;25.096;2023-07-30T03:01:41;99054.84;;;17.68
76901;BMP280;65859;43.020;25.096;2023-07-30T03:04:07;99057.84;;;16.98
76901;BMP280;65859;43.020;25.096;2023-07-30T03:06:33;99056.00;;;17.05
76901;BMP280;65859;43.020;25.096;2023-07-30T03:08:59;99062.94;;;17.14
76901;BMP280;65859;43.020;25.096;2023-07-30T03:11:27;99051.41;;;17.06
76901;BMP280;65859;43.020;25.096;2023-07-30T03:13:53;99057.97;;;17.16
76901;BMP280;65859;43.020;25.096;2023-07-30T03:16:19;99058.31;;;17.11
76901;BMP280;65859;43.020;25.096;2023-07-30T03:18:45;99063.78;;;17.25
76901;BMP280;65859;43.020;25.096;2023-07-30T03:21:12;99060.66;;;17.16
76901;BMP280;65859;43.020;25.096;2023-07-30T03:23:38;99055.13;;;16.94
76901;BMP280;65859;43.020;25.096;2023-07-30T03:26:04;99056.94;;;16.83
76901;BMP280;65859;43.020;25.096;2023-07-30T03:28:30;99064.16;;;16.79
76901;BMP280;65859;43.020;25.096;2023-07-30T03:30:57;99057.84;;;16.98
76901;BMP280;65859;43.020;25.096;2023-07-30T03:33:23;99059.78;;;17.04
76901;BMP280;65859;43.020;25.096;2023-07-30T03:35:49;99053.56;;;17.52
76901;BMP280;65859;43.020;25.096;2023-07-30T03:38:15;99056.00;;;17.09
76901;BMP280;65859;43.020;25.096;2023-07-30T03:40:42;99059.56;;;17.24
76901;BMP280;65859;43.020;25.096;2023-07-30T03:43:09;99056.00;;;17.78
76901;BMP280;65859;43.020;25.096;2023-07-30T03:45:35;99056.13;;;18.03
76901;BMP280;65859;43.020;25.096;2023-07-30T03:48:02;99071.88;;;18.15
76901;BMP280;65859;43.020;25.096;2023-07-30T03:50:28;99070.44;;;17.52
76901;BMP280;65859;43.020;25.096;2023-07-30T03:52:54;99072.41;;;17.62
76901;BMP280;65859;43.020;25.096;2023-07-30T03:55:20;99073.78;;;18.11
76901;BMP280;65859;43.020;25.096;2023-07-30T03:57:47;99067.28;;;18.12
76901;BMP280;65859;43.020;25.096;2023-07-30T04:00:13;99069.59;;;18.17
76901;BMP280;65859;43.020;25.096;2023-07-30T04:02:39;99074.25;;;18.35
76901;BMP280;65859;43.020;25.096;2023-07-30T04:05:06;99084.22;;;18.31
76901;BMP280;65859;43.020;25.096;2023-07-30T04:07:32;99081.56;;;18.38
76901;BMP280;65859;43.020;25.096;2023-07-30T04:09:58;99085.66;;;18.07
76901;BMP280;65859;43.020;25.096;2023-07-30T04:12:24;99085.66;;;18.07
76901;BMP280;65859;43.020;25.096;2023-07-30T04:14:52;99083.84;;;18.28
76901;BMP280;65859;43.020;25.096;2023-07-30T04:17:19;99083.88;;;18.46
76901;BMP280;65859;43.020;25.096;2023-07-30T04:19:45;99088.53;;;18.74
76901;BMP280;65859;43.020;25.096;2023-07-30T04:22:11;99086.59;;;18.93
76901;BMP280;65859;43.020;25.096;2023-07-30T04:24:38;99094.25;;;18.66
76901;BMP280;65859;43.020;25.096;2023-07-30T04:27:04;99091.97;;;18.82
76901;BMP280;65859;43.020;25.096;2023-07-30T04:29:30;99090.41;;;19.34
76901;BMP280;65859;43.020;25.096;2023-07-30T04:31:57;99088.56;;;20.11
76901;BMP280;65859;43.020;25.096;2023-07-30T04:34:23;99091.81;;;19.78
76901;BMP280;65859;43.020;25.096;2023-07-30T04:36:49;99088.75;;;19.69
76901;BMP280;65859;43.020;25.096;2023-07-30T04:39:15;99093.13;;;18.99
76901;BMP280;65859;43.020;25.096;2023-07-30T04:41:41;99088.69;;;20.56
76901;BMP280;65859;43.020;25.096;2023-07-30T04:44:08;99095.72;;;21.29
76901;BMP280;65859;43.020;25.096;2023-07-30T04:46:35;99102.34;;;21.24
76901;BMP280;65859;43.020;25.096;2023-07-30T04:49:05;99096.47;;;21.97
76901;BMP280;65859;43.020;25.096;2023-07-30T04:51:31;99102.41;;;21.55
76901;BMP280;65859;43.020;25.096;2023-07-30T04:53:57;99096.91;;;23.36
76901;BMP280;65859;43.020;25.096;2023-07-30T04:56:24;99094.03;;;21.46
76901;BMP280;65859;43.020;25.096;2023-07-30T04:58:53;99096.09;;;21.34
76901;BMP280;65859;43.020;25.096;2023-07-30T05:01:20;99091.25;;;21.12
76901;BMP280;65859;43.020;25.096;2023-07-30T05:03:46;99091.19;;;21.22
76901;BMP280;65859;43.020;25.096;2023-07-30T05:06:12;99090.88;;;20.72
76901;BMP280;65859;43.020;25.096;2023-07-30T05:08:38;99084.34;;;20.66
76901;BMP280;65859;43.020;25.096;2023-07-30T05:11:05;99094.97;;;20.87
76901;BMP280;65859;43.020;25.096;2023-07-30T05:13:31;99086.78;;;21.70
76901;BMP280;65859;43.020;25.096;2023-07-30T05:15:57;99089.63;;;22.16
76901;BMP280;65859;43.020;25.096;2023-07-30T05:18:25;99087.41;;;22.61
76901;BMP280;65859;43.020;25.096;2023-07-30T05:20:51;99084.41;;;22.56
76901;BMP280;65859;43.020;25.096;2023-07-30T05:23:17;99082.72;;;22.15
76901;BMP280;65859;43.020;25.096;2023-07-30T05:25:43;99071.72;;;23.16
76901;BMP280;65859;43.020;25.096;2023-07-30T05:28:10;99090.78;;;22.89
76901;BMP280;65859;43.020;25.096;2023-07-30T05:30:36;99082.19;;;22.94
76901;BMP280;65859;43.020;25.096;2023-07-30T05:33:02;99081.81;;;22.72
76901;BMP280;65859;43.020;25.096;2023-07-30T05:35:29;99089.63;;;21.89
76901;BMP280;65859;43.020;25.096;2023-07-30T05:37:55;99092.81;;;22.85
76901;BMP280;65859;43.020;25.096;2023-07-30T05:40:21;99091.94;;;22.91
76901;BMP280;65859;43.020;25.096;2023-07-30T05:42:48;99091.00;;;22.55
76901;BMP280;65859;43.020;25.096;2023-07-30T05:45:14;99092.50;;;23.03
76901;BMP280;65859;43.020;25.096;2023-07-30T05:47:41;99093.94;;;23.67
76901;BMP280;65859;43.020;25.096;2023-07-30T05:50:09;99091.56;;;23.49
76901;BMP280;65859;43.020;25.096;2023-07-30T05:52:35;99096.72;;;23.63
76901;BMP280;65859;43.020;25.096;2023-07-30T05:55:01;99096.69;;;23.47
76901;BMP280;65859;43.020;25.096;2023-07-30T05:57:27;99098.84;;;24.08
76901;BMP280;65859;43.020;25.096;2023-07-30T05:59:54;99098.13;;;23.32
76901;BMP280;65859;43.020;25.096;2023-07-30T06:02:20;99090.56;;;23.79
76901;BMP280;65859;43.020;25.096;2023-07-30T06:04:46;99093.69;;;24.13
76901;BMP280;65859;43.020;25.096;2023-07-30T06:07:13;99088.38;;;24.42
76901;BMP280;65859;43.020;25.096;2023-07-30T06:09:39;99093.63;;;24.17
76901;BMP280;65859;43.020;25.096;2023-07-30T06:12:05;99083.84;;;25.10
76901;BMP280;65859;43.020;25.096;2023-07-30T06:14:32;99086.53;;;24.68
76901;BMP280;65859;43.020;25.096;2023-07-30T06:16:58;99083.50;;;24.50
76901;BMP280;65859;43.020;25.096;2023-07-30T06:19:24;99085.19;;;24.11
76901;BMP280;65859;43.020;25.096;2023-07-30T06:21:53;99089.78;;;24.14
76901;BMP280;65859;43.020;25.096;2023-07-30T06:24:20;99081.91;;;23.68
76901;BMP280;65859;43.020;25.096;2023-07-30T06:26:46;99081.84;;;24.69
76901;BMP280;65859;43.020;25.096;2023-07-30T06:29:12;99072.53;;;25.78
76901;BMP280;65859;43.020;25.096;2023-07-30T06:31:39;99075.38;;;25.87
76901;BMP280;65859;43.020;25.096;2023-07-30T06:34:05;99083.06;;;26.02
76901;BMP280;65859;43.020;25.096;2023-07-30T06:36:32;99073.41;;;26.35
76901;BMP280;65859;43.020;25.096;2023-07-30T06:38:58;99071.56;;;26.10
76901;BMP280;65859;43.020;25.096;2023-07-30T06:41:24;99066.50;;;26.21
76901;BMP280;65859;43.020;25.096;2023-07-30T06:43:51;99066.06;;;26.36
76901;BMP280;65859;43.020;25.096;2023-07-30T06:46:17;99061.72;;;26.60
76901;BMP280;65859;43.020;25.096;2023-07-30T06:48:43;99066.28;;;26.85
76901;BMP280;65859;43.020;25.096;2023-07-30T06:51:10;99062.34;;;26.86
76901;BMP280;65859;43.020;25.096;2023-07-30T06:53:40;99058.00;;;27.19
76901;BMP280;65859;43.020;25.096;2023-07-30T06:56:06;99061.78;;;26.91
76901;BMP280;65859;43.020;25.096;2023-07-30T06:58:32;99059.63;;;26.86
76901;BMP280;65859;43.020;25.096;2023-07-30T07:00:59;99052.25;;;27.17
76901;BMP280;65859;43.020;25.096;2023-07-30T07:03:25;99048.41;;;27.37
76901;BMP280;65859;43.020;25.096;2023-07-30T07:05:55;99048.13;;;27.93
76901;BMP280;65859;43.020;25.096;2023-07-30T07:08:22;99044.66;;;27.43
76901;BMP280;65859;43.020;25.096;2023-07-30T07:10:48;99041.38;;;27.26
76901;BMP280;65859;43.020;25.096;2023-07-30T07:13:15;99038.81;;;27.72
76901;BMP280;65859;43.020;25.096;2023-07-30T07:15:42;99040.66;;;27.84
76901;BMP280;65859;43.020;25.096;2023-07-30T07:18:08;99039.31;;;27.98
76901;BMP280;65859;43.020;25.096;2023-07-30T07:20:35;99034.91;;;28.10
76901;BMP280;65859;43.020;25.096;2023-07-30T07:23:01;99038.63;;;27.17
76901;BMP280;65859;43.020;25.096;2023-07-30T07:25:29;99033.13;;;27.48
76901;BMP280;65859;43.020;25.096;2023-07-30T07:27:55;99038.88;;;27.90
76901;BMP280;65859;43.020;25.096;2023-07-30T07:30:22;99028.78;;;28.88
76901;BMP280;65859;43.020;25.096;2023-07-30T07:32:48;99031.19;;;29.28
76901;BMP280;65859;43.020;25.096;2023-07-30T07:35:19;99033.63;;;29.35
76901;BMP280;65859;43.020;25.096;2023-07-30T07:37:46;99024.19;;;29.60
76901;BMP280;65859;43.020;25.096;2023-07-30T07:40:12;99033.00;;;28.98
76901;BMP280;65859;43.020;25.096;2023-07-30T07:42:39;99019.09;;;29.53
76901;BMP280;65859;43.020;25.096;2023-07-30T07:45:06;99010.00;;;30.09
76901;BMP280;65859;43.020;25.096;2023-07-30T07:47:33;99013.22;;;30.08
76901;BMP280;65859;43.020;25.096;2023-07-30T07:49:59;99019.97;;;29.97
76901;BMP280;65859;43.020;25.096;2023-07-30T07:52:25;99011.06;;;29.73
76901;BMP280;65859;43.020;25.096;2023-07-30T07:54:51;99005.28;;;30.10
76901;BMP280;65859;43.020;25.096;2023-07-30T07:57:20;98994.91;;;30.14
76901;BMP280;65859;43.020;25.096;2023-07-30T07:59:47;98999.81;;;30.10
76901;BMP280;65859;43.020;25.096;2023-07-30T08:02:13;98996.56;;;29.58
76901;BMP280;65859;43.020;25.096;2023-07-30T08:04:40;98997.09;;;30.10
76901;BMP280;65859;43.020;25.096;2023-07-30T08:07:06;98996.13;;;29.74
76901;BMP280;65859;43.020;25.096;2023-07-30T08:09:32;98991.31;;;29.69
76901;BMP280;65859;43.020;25.096;2023-07-30T08:12:00;98991.53;;;29.80
76901;BMP280;65859;43.020;25.096;2023-07-30T08:14:29;98990.56;;;30.07
76901;BMP280;65859;43.020;25.096;2023-07-30T08:16:56;98991.25;;;30.46
76901;BMP280;65859;43.020;25.096;2023-07-30T08:19:22;98993.38;;;30.86
76901;BMP280;65859;43.020;25.096;2023-07-30T08:21:48;98980.94;;;30.56
76901;BMP280;65859;43.020;25.096;2023-07-30T08:24:14;98980.44;;;30.87
76901;BMP280;65859;43.020;25.096;2023-07-30T08:26:41;98979.00;;;31.26
76901;BMP280;65859;43.020;25.096;2023-07-30T08:29:08;98974.41;;;31.38
76901;BMP280;65859;43.020;25.096;2023-07-30T08:31:36;98976.03;;;31.96
76901;BMP280;65859;43.020;25.096;2023-07-30T08:34:02;98977.41;;;32.06
76901;BMP280;65859;43.020;25.096;2023-07-30T08:36:28;98974.84;;;31.77
76901;BMP280;65859;43.020;25.096;2023-07-30T08:38:55;98966.28;;;31.95
76901;BMP280;65859;43.020;25.096;2023-07-30T08:41:21;98968.84;;;32.61
76901;BMP280;65859;43.020;25.096;2023-07-30T08:43:47;98967.50;;;32.20
76901;BMP280;65859;43.020;25.096;2023-07-30T08:46:15;98953.47;;;32.12
76901;BMP280;65859;43.020;25.096;2023-07-30T08:48:42;98963.22;;;32.45
76901;BMP280;65859;43.020;25.096;2023-07-30T08:51:08;98958.44;;;32.40
76901;BMP280;65859;43.020;25.096;2023-07-30T08:53:34;98955.63;;;33.19
76901;BMP280;65859;43.020;25.096;2023-07-30T08:56:01;98953.81;;;32.99
76901;BMP280;65859;43.020;25.096;2023-07-30T08:58:28;98951.50;;;32.50
76901;BMP280;65859;43.020;25.096;2023-07-30T09:00:57;98945.25;;;32.92
76901;BMP280;65859;43.020;25.096;2023-07-30T09:03:25;98946.78;;;33.63
76901;BMP280;65859;43.020;25.096;2023-07-30T09:05:53;98933.78;;;33.69
76901;BMP280;65859;43.020;25.096;2023-07-30T09:08:19;98928.13;;;34.81
76901;BMP280;65859;43.020;25.096;2023-07-30T09:10:45;98935.56;;;38.49
76901;BMP280;65859;43.020;25.096;2023-07-30T09:13:12;98933.28;;;40.93
76901;BMP280;65859;43.020;25.096;2023-07-30T09:15:49;98940.03;;;41.35
76901;BMP280;65859;43.020;25.096;2023-07-30T09:18:19;98936.47;;;41.73
76901;BMP280;65859;43.020;25.096;2023-07-30T09:20:45;98937.00;;;42.42
76901;BMP280;65859;43.020;25.096;2023-07-30T09:23:12;98930.22;;;43.51
76901;BMP280;65859;43.020;25.096;2023-07-30T09:25:39;98942.19;;;42.77
76901;BMP280;65859;43.020;25.096;2023-07-30T09:28:06;98934.00;;;43.29
76901;BMP280;65859;43.020;25.096;2023-07-30T09:30:32;98937.38;;;43.45
76901;BMP280;65859;43.020;25.096;2023-07-30T09:33:00;98934.97;;;40.88
76901;BMP280;65859;43.020;25.096;2023-07-30T09:35:27;98925.44;;;39.19
76901;BMP280;65859;43.020;25.096;2023-07-30T09:38:01;98930.75;;;39.80
76901;BMP280;65859;43.020;25.096;2023-07-30T09:40:35;98921.69;;;38.49
76901;BMP280;65859;43.020;25.096;2023-07-30T09:43:03;98916.06;;;36.01
76901;BMP280;65859;43.020;25.096;2023-07-30T09:45:34;98908.19;;;35.51
76901;BMP280;65859;43.020;25.096;2023-07-30T09:48:05;98909.94;;;34.56
76901;BMP280;65859;43.020;25.096;2023-07-30T09:50:35;98903.25;;;34.92
76901;BMP280;65859;43.020;25.096;2023-07-30T09:53:02;98910.94;;;34.41
76901;BMP280;65859;43.020;25.096;2023-07-30T09:55:29;98896.72;;;33.93
76901;BMP280;65859;43.020;25.096;2023-07-30T09:57:55;98901.72;;;34.17
76901;BMP280;65859;43.020;25.096;2023-07-30T10:00:22;98898.97;;;34.22
76901;BMP280;65859;43.020;25.096;2023-07-30T10:02:50;98895.75;;;34.87
76901;BMP280;65859;43.020;25.096;2023-07-30T10:05:24;98892.56;;;34.66
76901;BMP280;65859;43.020;25.096;2023-07-30T10:08:02;98895.16;;;35.05
76901;BMP280;65859;43.020;25.096;2023-07-30T10:10:31;98888.00;;;35.26
76901;BMP280;65859;43.020;25.096;2023-07-30T10:13:02;98878.56;;;35.52
76901;BMP280;65859;43.020;25.096;2023-07-30T10:15:29;98877.31;;;35.17
76901;BMP280;65859;43.020;25.096;2023-07-30T10:17:59;98870.91;;;34.87
76901;BMP280;65859;43.020;25.096;2023-07-30T10:20:27;98866.41;;;34.89
76901;BMP280;65859;43.020;25.096;2023-07-30T10:22:56;98861.53;;;35.07
76901;BMP280;65859;43.020;25.096;2023-07-30T10:25:30;98854.25;;;34.63
76901;BMP280;65859;43.020;25.096;2023-07-30T10:28:07;98855.16;;;34.82
76901;BMP280;65859;43.020;25.096;2023-07-30T10:30:34;98856.91;;;34.79
76901;BMP280;65859;43.020;25.096;2023-07-30T10:33:09;98854.03;;;34.49
76901;BMP280;65859;43.020;25.096;2023-07-30T10:35:40;98847.81;;;34.38
76901;BMP280;65859;43.020;25.096;2023-07-30T10:40:42;98850.03;;;34.45
76901;BMP280;65859;43.020;25.096;2023-07-30T10:43:27;98844.13;;;34.82
76901;BMP280;65859;43.020;25.096;2023-07-30T10:45:53;98838.34;;;34.11
76901;BMP280;65859;43.020;25.096;2023-07-30T10:48:28;98837.28;;;34.36
76901;BMP280;65859;43.020;25.096;2023-07-30T10:50:55;98826.88;;;34.70
76901;BMP280;65859;43.020;25.096;2023-07-30T10:53:21;98825.00;;;34.95
76901;BMP280;65859;43.020;25.096;2023-07-30T10:55:48;98828.25;;;34.94
76901;BMP280;65859;43.020;25.096;2023-07-30T10:58:14;98824.91;;;35.06
76901;BMP280;65859;43.020;25.096;2023-07-30T11:00:42;98819.81;;;34.80
76901;BMP280;65859;43.020;25.096;2023-07-30T11:03:08;98826.53;;;34.33
76901;BMP280;65859;43.020;25.096;2023-07-30T11:05:37;98825.47;;;34.36
76901;BMP280;65859;43.020;25.096;2023-07-30T11:08:05;98820.84;;;34.72
76901;BMP280;65859;43.020;25.096;2023-07-30T11:10:32;98821.09;;;34.74
76901;BMP280;65859;43.020;25.096;2023-07-30T11:13:06;98822.63;;;34.64
76901;BMP280;65859;43.020;25.096;2023-07-30T11:15:33;98820.28;;;34.79
76901;BMP280;65859;43.020;25.096;2023-07-30T11:17:59;98814.94;;;34.51
76901;BMP280;65859;43.020;25.096;2023-07-30T11:20:26;98809.53;;;34.18
76901;BMP280;65859;43.020;25.096;2023-07-30T11:22:53;98807.81;;;33.98
76901;BMP280;65859;43.020;25.096;2023-07-30T11:25:20;98795.03;;;34.00
76901;BMP280;65859;43.020;25.096;2023-07-30T11:27:47;98787.78;;;33.81
76901;BMP280;65859;43.020;25.096;2023-07-30T11:30:14;98789.06;;;33.57
76901;BMP280;65859;43.020;25.096;2023-07-30T11:32:42;98785.56;;;33.57
76901;BMP280;65859;43.020;25.096;2023-07-30T11:35:09;98776.56;;;33.67
76901;BMP280;65859;43.020;25.096;2023-07-30T11:37:35;98777.81;;;33.16
76901;BMP280;65859;43.020;25.096;2023-07-30T11:40:11;98773.06;;;33.50
76901;BMP280;65859;43.020;25.096;2023-07-30T11:42:38;98779.34;;;33.45
76901;BMP280;65859;43.020;25.096;2023-07-30T11:45:21;98766.81;;;33.22
76901;BMP280;65859;43.020;25.096;2023-07-30T11:47:48;98769.53;;;33.66
76901;BMP280;65859;43.020;25.096;2023-07-30T11:50:15;98775.06;;;33.61
76901;BMP280;65859;43.020;25.096;2023-07-30T11:52:54;98771.06;;;33.23
76901;BMP280;65859;43.020;25.096;2023-07-30T11:55:21;98765.31;;;33.32
76901;BMP280;65859;43.020;25.096;2023-07-30T11:57:47;98758.56;;;33.50
76901;BMP280;65859;43.020;25.096;2023-07-30T12:00:14;98753.78;;;33.45
76901;BMP280;65859;43.020;25.096;2023-07-30T12:02:41;98754.81;;;33.30
76901;BMP280;65859;43.020;25.096;2023-07-30T12:05:10;98753.78;;;33.61
76901;BMP280;65859;43.020;25.096;2023-07-30T12:07:40;98748.78;;;33.37
76901;BMP280;65859;43.020;25.096;2023-07-30T12:10:11;98741.03;;;33.14
76901;BMP280;65859;43.020;25.096;2023-07-30T12:12:45;98735.03;;;33.32
76901;BMP280;65859;43.020;25.096;2023-07-30T12:15:12;98732.25;;;33.71
76901;BMP280;65859;43.020;25.096;2023-07-30T12:17:39;98726.50;;;33.69
76901;BMP280;65859;43.020;25.096;2023-07-30T12:20:06;98692.47;;;33.72
76901;BMP280;65859;43.020;25.096;2023-07-30T12:22:33;98721.19;;;33.93
76901;BMP280;65859;43.020;25.096;2023-07-30T12:25:02;98718.47;;;33.82
76901;BMP280;65859;43.020;25.096;2023-07-30T12:27:32;98716.03;;;33.45
76901;BMP280;65859;43.020;25.096;2023-07-30T12:29:58;98720.78;;;33.50
76901;BMP280;65859;43.020;25.096;2023-07-30T12:32:24;98719.00;;;33.47
76901;BMP280;65859;43.020;25.096;2023-07-30T12:34:54;98714.50;;;33.55
76901;BMP280;65859;43.020;25.096;2023-07-30T12:37:20;98714.50;;;33.55
76901;BMP280;65859;43.020;25.096;2023-07-30T12:39:46;98704.25;;;33.50
76901;BMP280;65859;43.020;25.096;2023-07-30T12:42:14;98698.97;;;33.74
76901;BMP280;65859;43.020;25.096;2023-07-30T12:44:40;98690.66;;;33.86
76901;BMP280;65859;43.020;25.096;2023-07-30T12:47:07;98689.91;;;33.85
76901;BMP280;65859;43.020;25.096;2023-07-30T12:49:33;98684.22;;;33.55
76901;BMP280;65859;43.020;25.096;2023-07-30T12:51:59;98681.22;;;33.53
76901;BMP280;65859;43.020;25.096;2023-07-30T12:54:25;98680.97;;;33.57
76901;BMP280;65859;43.020;25.096;2023-07-30T12:56:52;98684.69;;;33.59
76901;BMP280;65859;43.020;25.096;2023-07-30T12:59:18;98682.22;;;33.61
76901;BMP280;65859;43.020;25.096;2023-07-30T13:01:44;98676.47;;;33.54
76901;BMP280;65859;43.020;25.096;2023-07-30T13:04:11;98670.69;;;33.57
76901;BMP280;65859;43.020;25.096;2023-07-30T13:06:37;98660.56;;;33.88
76901;BMP280;65859;43.020;25.096;2023-07-30T13:09:03;98665.16;;;33.80
76901;BMP280;65859;43.020;25.096;2023-07-30T13:11:29;98662.94;;;33.61
76901;BMP280;65859;43.020;25.096;2023-07-30T13:13:57;98668.38;;;33.89
76901;BMP280;65859;43.020;25.096;2023-07-30T13:16:23;98671.91;;;33.79
76901;BMP280;65859;43.020;25.096;2023-07-30T13:18:50;98654.47;;;33.31
76901;BMP280;65859;43.020;25.096;2023-07-30T13:21:16;98658.69;;;33.60
76901;BMP280;65859;43.020;25.096;2023-07-30T13:23:42;98659.63;;;33.74
76901;BMP280;65859;43.020;25.096;2023-07-30T13:26:08;98650.66;;;33.62
76901;BMP280;65859;43.020;25.096;2023-07-30T13:28:35;98646.19;;;33.54
76901;BMP280;65859;43.020;25.096;2023-07-30T13:31:01;98642.19;;;33.49
76901;BMP280;65859;43.020;25.096;2023-07-30T13:33:27;98636.19;;;33.34
76901;BMP280;65859;43.020;25.096;2023-07-30T13:35:53;98631.47;;;33.46
76901;BMP280;65859;43.020;25.096;2023-07-30T13:38:20;98636.41;;;33.64
76901;BMP280;65859;43.020;25.096;2023-07-30T13:40:47;98638.63;;;33.65
76901;BMP280;65859;43.020;25.096;2023-07-30T13:43:13;98629.88;;;33.67
76901;BMP280;65859;43.020;25.096;2023-07-30T13:45:41;98633.13;;;33.65
76901;BMP280;65859;43.020;25.096;2023-07-30T13:48:07;98630.13;;;33.74
76901;BMP280;65859;43.020;25.096;2023-07-30T13:50:35;98629.06;;;33.83
76901;BMP280;65859;43.020;25.096;2023-07-30T13:53:01;98629.41;;;33.57
76901;BMP280;65859;43.020;25.096;2023-07-30T13:55:28;98638.19;;;33.50
76901;BMP280;65859;43.020;25.096;2023-07-30T13:57:55;98629.06;;;33.78